createdAt,value
2017-06-02T00:00:12.000Z,8.22
2017-06-02T00:02:40.848Z,9.10
2017-06-02T00:05:09.712Z,7.90
2017-06-02T00:07:38.551Z,6.34
2017-06-02T00:10:06.623Z,6.02
2017-06-02T00:12:35.471Z,6.68
2017-06-02T00:15:04.308Z,6.18
2017-06-02T00:17:32.396Z,6.64
2017-06-02T00:20:01.236Z,7.88
2017-06-02T00:22:30.076Z,7.34
2017-06-02T00:24:58.923Z,9.64
2017-06-02T00:27:27.839Z,8.96
2017-06-02T00:29:56.679Z,9.76
2017-06-02T00:32:25.575Z,13.44
2017-06-02T00:34:54.439Z,9.64
2017-06-02T00:37:23.284Z,9.26
2017-06-02T00:39:52.139Z,9.74
2017-06-02T00:42:20.988Z,8.90
2017-06-02T00:44:49.835Z,10.38
2017-06-02T00:47:18.684Z,10.18
2017-06-02T00:49:47.555Z,10.42
2017-06-02T00:52:16.507Z,10.58
2017-06-02T00:54:45.690Z,9.82
2017-06-02T00:57:14.671Z,9.24
2017-06-02T00:59:43.507Z,8.68
2017-06-02T01:02:12.360Z,9.98
2017-06-02T01:04:41.212Z,8.68
2017-06-02T01:07:09.311Z,9.62
2017-06-02T01:09:38.168Z,10.12
2017-06-02T01:12:07.053Z,7.04
2017-06-02T01:14:35.912Z,9.42
2017-06-02T01:17:04.752Z,7.72
2017-06-02T01:19:33.636Z,8.58
2017-06-02T01:22:01.777Z,7.76
2017-06-02T01:24:30.622Z,8.12
2017-06-02T01:26:59.476Z,9.36
2017-06-02T01:29:28.388Z,9.86
2017-06-02T01:31:57.230Z,9.56
2017-06-02T01:34:26.071Z,11.54
2017-06-02T01:36:54.158Z,10.76
2017-06-02T01:39:23.012Z,10.20
2017-06-02T01:41:51.859Z,10.74
2017-06-02T01:44:20.705Z,10.42
2017-06-02T01:46:48.812Z,9.64
2017-06-02T01:49:17.656Z,9.78
2017-06-02T01:51:46.503Z,7.84
2017-06-02T01:54:15.384Z,7.72
2017-06-02T01:56:44.255Z,8.62
2017-06-02T01:59:13.100Z,7.64
2017-06-02T02:01:41.934Z,7.28
2017-06-02T02:04:10.779Z,9.18
2017-06-02T02:06:39.627Z,7.52
2017-06-02T02:09:08.476Z,7.52
2017-06-02T02:11:37.320Z,8.08
2017-06-02T02:14:06.184Z,5.90
2017-06-02T02:16:34.259Z,6.62
2017-06-02T02:19:03.108Z,6.00
2017-06-02T02:21:31.951Z,7.40
2017-06-02T02:24:00.787Z,7.68
2017-06-02T02:26:29.631Z,7.14
2017-06-02T02:28:57.780Z,7.90
2017-06-02T02:31:26.623Z,6.74
2017-06-02T02:33:55.471Z,12.04
2017-06-02T02:36:24.349Z,6.32
2017-06-02T02:38:53.256Z,7.48
2017-06-02T02:41:22.099Z,12.38
2017-06-02T02:43:50.971Z,6.24
2017-06-02T02:46:19.815Z,7.62
2017-06-02T02:48:48.673Z,10.64
2017-06-02T02:51:17.524Z,6.46
2017-06-02T02:53:45.604Z,6.54
2017-06-02T02:56:14.460Z,7.50
2017-06-02T02:58:43.316Z,6.86
2017-06-02T03:01:12.151Z,7.48
2017-06-02T03:03:41.024Z,7.14
2017-06-02T03:06:09.939Z,8.20
2017-06-02T03:08:38.011Z,8.32
2017-06-02T03:11:06.865Z,7.96
2017-06-02T03:13:35.711Z,8.16
2017-06-02T03:16:04.572Z,10.60
2017-06-02T03:18:32.664Z,8.16
2017-06-02T03:21:01.523Z,11.20
2017-06-02T03:23:30.364Z,9.02
2017-06-02T03:25:59.251Z,9.66
2017-06-02T03:28:27.324Z,12.86
2017-06-02T03:30:56.163Z,7.94
2017-06-02T03:33:25.016Z,7.92
2017-06-02T03:35:53.860Z,8.08
2017-06-02T03:38:21.947Z,7.12
2017-06-02T03:40:50.788Z,8.00
2017-06-02T03:43:19.636Z,9.62
2017-06-02T03:45:48.483Z,10.06
2017-06-02T03:48:17.336Z,6.92
2017-06-02T03:50:46.184Z,7.34
2017-06-02T03:53:15.033Z,6.98
2017-06-02T03:55:43.876Z,7.18
2017-06-02T03:58:12.716Z,8.64
2017-06-02T04:00:41.564Z,7.52
2017-06-02T04:03:10.412Z,10.40
2017-06-02T04:05:39.252Z,7.66
2017-06-02T04:08:08.099Z,12.80
2017-06-02T04:10:36.990Z,14.88
2017-06-02T04:13:05.835Z,6.84
2017-06-02T04:15:34.691Z,9.32
2017-06-02T04:18:03.545Z,9.28
2017-06-02T04:20:32.383Z,8.88
2017-06-02T04:23:00.475Z,9.78
2017-06-02T04:25:29.335Z,14.78
2017-06-02T04:27:58.184Z,11.10
2017-06-02T04:30:27.027Z,20.50
2017-06-02T04:32:55.930Z,9.10
2017-06-02T04:35:24.753Z,7.86
2017-06-02T04:37:53.601Z,9.68
2017-06-02T04:40:22.466Z,6.60
2017-06-02T04:42:51.313Z,7.20
2017-06-02T04:45:20.424Z,6.94
2017-06-02T04:47:49.268Z,7.62
2017-06-02T04:50:17.355Z,7.18
2017-06-02T04:52:46.209Z,7.92
2017-06-02T04:55:15.077Z,11.24
2017-06-02T04:57:43.936Z,10.30
2017-06-02T05:00:12.028Z,9.10
2017-06-02T05:02:40.875Z,8.92
2017-06-02T05:05:09.715Z,9.38
2017-06-02T05:07:38.567Z,8.28
2017-06-02T05:10:07.437Z,9.88
2017-06-02T05:12:36.339Z,9.14
2017-06-02T05:15:05.175Z,7.22
2017-06-02T05:17:34.015Z,8.42
2017-06-02T05:20:02.873Z,8.80
2017-06-02T05:22:31.840Z,8.60
2017-06-02T05:25:00.696Z,8.02
2017-06-02T05:27:29.547Z,8.28
2017-06-02T05:29:58.395Z,13.92
2017-06-02T05:32:27.243Z,8.88
2017-06-02T05:34:56.127Z,9.14
2017-06-02T05:37:24.977Z,8.14
2017-06-02T05:39:53.831Z,7.78
2017-06-02T05:42:22.684Z,9.00
2017-06-02T05:44:51.559Z,11.56
2017-06-02T05:47:20.416Z,15.34
2017-06-02T05:49:49.260Z,7.50
2017-06-02T05:52:18.159Z,10.12
2017-06-02T05:54:47.004Z,7.90
2017-06-02T05:57:15.851Z,8.68
2017-06-02T05:59:44.703Z,7.84
2017-06-02T06:02:13.576Z,7.78
2017-06-02T06:04:52.475Z,8.38
2017-06-02T06:09:56.515Z,10.44
2017-06-02T06:12:25.356Z,8.54
2017-06-02T06:14:54.352Z,22.44
2017-06-02T06:17:23.191Z,21.90
2017-06-02T06:19:51.279Z,8.24
2017-06-02T06:22:20.123Z,9.86
2017-06-02T06:24:48.968Z,11.24
2017-06-02T06:27:17.840Z,11.82
2017-06-02T06:29:46.687Z,8.90
2017-06-02T06:32:15.543Z,9.86
2017-06-02T06:34:44.389Z,8.84
2017-06-02T06:37:13.337Z,10.50
2017-06-02T06:39:42.131Z,10.42
2017-06-02T06:42:10.988Z,13.00
2017-06-02T06:44:39.843Z,9.38
2017-06-02T06:47:08.687Z,13.78
2017-06-02T06:49:37.544Z,15.26
2017-06-02T06:52:05.628Z,14.68
2017-06-02T06:54:34.473Z,13.60
2017-06-02T06:57:03.323Z,12.38
2017-06-02T06:59:32.203Z,13.86
2017-06-02T07:02:01.052Z,11.42
2017-06-02T07:04:30.749Z,11.00
2017-06-02T07:06:59.901Z,13.10
2017-06-02T07:09:28.002Z,13.70
2017-06-02T07:11:56.930Z,10.76
2017-06-02T07:14:25.770Z,16.04
2017-06-02T07:16:54.615Z,13.30
2017-06-02T07:19:23.459Z,11.26
2017-06-02T07:21:52.345Z,8.72
2017-06-02T07:24:21.185Z,10.66
2017-06-02T07:26:50.024Z,11.48
2017-06-02T07:29:18.888Z,11.98
2017-06-02T07:31:46.958Z,8.88
2017-06-02T07:34:15.812Z,8.96
2017-06-02T07:36:44.656Z,8.04
2017-06-02T07:39:13.504Z,9.52
2017-06-02T07:41:42.347Z,7.00
2017-06-02T07:44:11.212Z,8.62
2017-06-02T07:46:39.283Z,6.90
2017-06-02T07:49:08.119Z,8.52
2017-06-02T07:51:36.964Z,9.56
2017-06-02T07:54:05.798Z,8.50
2017-06-02T07:56:34.645Z,8.30
2017-06-02T07:59:02.715Z,8.54
2017-06-02T08:01:31.563Z,9.18
2017-06-02T08:04:00.405Z,7.60
2017-06-02T08:06:29.247Z,8.96
2017-06-02T08:08:58.129Z,9.74
2017-06-02T08:11:26.984Z,7.70
2017-06-02T08:13:55.070Z,9.06
2017-06-02T08:16:23.967Z,8.06
2017-06-02T08:18:52.859Z,8.54
2017-06-02T08:21:21.756Z,8.56
2017-06-02T08:23:50.612Z,9.08
2017-06-02T08:26:19.456Z,10.42
2017-06-02T08:28:48.316Z,13.24
2017-06-02T08:31:16.392Z,9.48
2017-06-02T08:33:45.244Z,6.96
2017-06-02T08:36:14.092Z,10.68
2017-06-02T08:38:42.932Z,9.34
2017-06-02T08:41:11.784Z,9.52
2017-06-02T08:43:40.631Z,8.12
2017-06-02T08:46:09.488Z,7.96
2017-06-02T08:48:38.332Z,8.98
2017-06-02T08:51:07.219Z,10.18
2017-06-02T08:53:36.068Z,12.44
2017-06-02T08:56:04.908Z,6.44
2017-06-02T08:58:34.825Z,7.44
2017-06-02T09:01:03.696Z,6.96
2017-06-02T09:03:32.542Z,10.08
2017-06-02T09:06:01.379Z,6.86
2017-06-02T09:08:30.224Z,7.22
2017-06-02T09:10:59.067Z,7.96
2017-06-02T09:13:27.912Z,6.44
2017-06-02T09:15:56.768Z,5.00
2017-06-02T09:18:25.609Z,5.98
2017-06-02T09:20:53.695Z,5.96
2017-06-02T09:23:22.542Z,8.78
2017-06-02T09:25:51.376Z,5.80
2017-06-02T09:28:20.225Z,6.20
2017-06-02T09:30:49.067Z,6.90
2017-06-02T09:33:17.916Z,7.50
2017-06-02T09:35:46.769Z,6.50
2017-06-02T09:38:15.612Z,7.34
2017-06-02T09:40:44.532Z,8.70
2017-06-02T09:43:13.403Z,6.54
2017-06-02T09:45:42.238Z,7.34
2017-06-02T09:48:11.091Z,7.36
2017-06-02T09:50:39.940Z,10.10
2017-06-02T09:53:08.783Z,8.48
2017-06-02T09:55:37.624Z,7.20
2017-06-02T09:58:06.500Z,7.30
2017-06-02T10:00:35.332Z,6.52
2017-06-02T10:03:04.217Z,7.24
2017-06-02T10:05:33.151Z,7.98
2017-06-02T10:08:01.993Z,8.92
2017-06-02T10:10:30.834Z,8.10
2017-06-02T10:12:59.676Z,6.82
2017-06-02T10:15:28.556Z,7.10
2017-06-02T10:17:57.396Z,10.50
2017-06-02T10:20:26.272Z,8.52
2017-06-02T10:22:54.347Z,8.28
2017-06-02T10:25:23.191Z,7.10
2017-06-02T10:27:52.035Z,5.98
2017-06-02T10:30:20.875Z,7.94
2017-06-02T10:32:49.724Z,7.32
2017-06-02T10:35:18.556Z,7.90
2017-06-02T10:37:47.404Z,8.80
2017-06-02T10:40:16.245Z,7.92
2017-06-02T10:42:45.103Z,8.14
2017-06-02T10:45:13.953Z,6.04
2017-06-02T10:47:42.822Z,7.38
2017-06-02T10:50:11.700Z,8.54
2017-06-02T10:52:40.540Z,8.62
2017-06-02T10:55:09.403Z,8.62
2017-06-02T10:57:38.244Z,6.68
2017-06-02T11:00:07.092Z,8.16
2017-06-02T11:02:35.187Z,11.52
2017-06-02T11:05:04.064Z,6.50
2017-06-02T11:07:32.148Z,6.60
2017-06-02T11:10:00.995Z,7.14
2017-06-02T11:12:29.855Z,10.10
2017-06-02T11:14:58.700Z,8.32
2017-06-02T11:17:26.815Z,9.76
2017-06-02T11:19:55.651Z,8.20
2017-06-02T11:22:23.751Z,8.32
2017-06-02T11:24:52.603Z,7.48
2017-06-02T11:27:21.439Z,6.40
2017-06-02T11:29:50.292Z,8.00
2017-06-02T11:32:19.124Z,6.02
2017-06-02T11:34:47.976Z,7.70
2017-06-02T11:37:16.055Z,8.02
2017-06-02T11:39:44.904Z,12.02
2017-06-02T11:42:13.751Z,10.94
2017-06-02T11:44:42.619Z,6.78
2017-06-02T11:47:11.455Z,8.86
2017-06-02T11:49:40.309Z,6.12
2017-06-02T11:52:08.395Z,9.24
2017-06-02T11:54:37.238Z,7.48
2017-06-02T11:57:06.083Z,7.02
2017-06-02T11:59:34.928Z,6.42
2017-06-02T12:02:03.780Z,6.02
2017-06-02T12:04:32.730Z,10.54
2017-06-02T12:07:01.580Z,11.12
2017-06-02T12:09:30.444Z,8.80
2017-06-02T12:11:59.292Z,8.90
2017-06-02T12:14:28.140Z,6.88
2017-06-02T12:16:56.987Z,6.34
2017-06-02T12:19:25.080Z,9.10
2017-06-02T12:21:53.930Z,8.32
2017-06-02T12:24:22.775Z,6.16
2017-06-02T12:26:51.615Z,6.24
2017-06-02T12:29:20.483Z,5.94
2017-06-02T12:31:49.327Z,8.68
2017-06-02T12:34:18.195Z,9.04
2017-06-02T12:36:46.278Z,7.70
2017-06-02T12:39:15.144Z,6.92
2017-06-02T12:41:43.988Z,8.06
2017-06-02T12:44:12.823Z,7.64
2017-06-02T12:46:41.670Z,7.28
2017-06-02T12:49:10.515Z,8.52
2017-06-02T12:51:39.379Z,9.72
2017-06-02T12:54:08.215Z,7.34
2017-06-02T12:56:37.051Z,6.98
2017-06-02T12:59:05.915Z,7.54
2017-06-02T13:01:34.762Z,10.88
2017-06-02T13:04:03.613Z,9.30
2017-06-02T13:06:32.541Z,7.84
2017-06-02T13:09:01.383Z,8.04
2017-06-02T13:11:30.222Z,6.88
2017-06-02T13:13:59.091Z,6.98
2017-06-02T13:16:28.035Z,7.26
2017-06-02T13:18:56.871Z,7.16
2017-06-02T13:21:25.763Z,6.68
2017-06-02T13:23:54.600Z,7.76
2017-06-02T13:26:23.459Z,6.90
2017-06-02T13:28:52.299Z,7.74
2017-06-02T13:31:21.158Z,9.84
2017-06-02T13:33:50.003Z,10.32
2017-06-02T13:36:18.888Z,8.74
2017-06-02T13:38:47.776Z,8.76
2017-06-02T13:41:16.611Z,7.88
2017-06-02T13:43:45.484Z,8.02
2017-06-02T13:46:14.319Z,8.86
2017-06-02T13:48:43.167Z,7.24
2017-06-02T13:51:12.995Z,7.24
2017-06-02T13:53:41.872Z,9.30
2017-06-02T13:56:10.728Z,7.42
2017-06-02T13:58:39.571Z,8.76
2017-06-02T14:01:08.423Z,11.12
2017-06-02T14:03:37.269Z,8.92
2017-06-02T14:06:06.124Z,6.72
2017-06-02T14:08:34.981Z,7.54
2017-06-02T14:11:03.820Z,8.32
2017-06-02T14:13:32.659Z,10.52
2017-06-02T14:16:01.515Z,6.88
2017-06-02T14:18:30.372Z,7.02
2017-06-02T14:20:59.211Z,6.36
2017-06-02T14:23:28.081Z,7.76
2017-06-02T14:25:56.915Z,7.10
2017-06-02T14:28:25.763Z,7.04
2017-06-02T14:30:54.860Z,6.46
2017-06-02T14:33:23.708Z,8.62
2017-06-02T14:35:52.558Z,8.18
2017-06-02T14:38:20.644Z,10.52
2017-06-02T14:40:49.479Z,6.92
2017-06-02T14:43:18.363Z,8.02
2017-06-02T14:45:47.203Z,12.06
2017-06-02T14:48:16.035Z,7.32
2017-06-02T14:50:44.883Z,6.50
2017-06-02T14:53:13.072Z,7.72
2017-06-02T14:55:41.923Z,6.52
2017-06-02T14:58:10.786Z,8.44
2017-06-02T15:00:39.632Z,8.50
2017-06-02T15:03:08.468Z,8.10
2017-06-02T15:05:38.099Z,6.32
2017-06-02T15:08:06.939Z,9.38
2017-06-02T15:10:35.785Z,10.66
2017-06-02T15:13:04.639Z,6.32
2017-06-02T15:15:33.492Z,6.90
2017-06-02T15:18:02.352Z,9.12
2017-06-02T15:20:31.192Z,8.84
2017-06-02T15:23:00.099Z,7.02
2017-06-02T15:25:29.096Z,7.42
2017-06-02T15:27:57.994Z,7.04
2017-06-02T15:30:26.912Z,6.18
2017-06-02T15:32:55.748Z,6.20
2017-06-02T15:35:24.612Z,7.24
2017-06-02T15:37:52.691Z,8.58
2017-06-02T15:40:21.544Z,6.88
2017-06-02T15:42:50.379Z,6.34
2017-06-02T15:45:19.222Z,8.60
2017-06-02T15:47:48.067Z,7.08
2017-06-02T15:50:16.951Z,9.28
2017-06-02T15:52:45.793Z,6.20
2017-06-02T15:55:14.632Z,8.00
2017-06-02T15:57:42.717Z,5.80
2017-06-02T16:00:11.623Z,7.92
2017-06-02T16:02:40.479Z,9.38
2017-06-02T16:05:09.318Z,8.96
2017-06-02T16:07:38.184Z,7.08
2017-06-02T16:10:35.691Z,8.46
2017-06-02T16:13:04.594Z,10.26
2017-06-02T16:15:33.436Z,9.98
2017-06-02T16:18:02.279Z,8.34
2017-06-02T16:20:31.119Z,7.22
2017-06-02T16:22:59.973Z,7.98
2017-06-02T16:25:28.810Z,5.54
2017-06-02T16:27:57.660Z,7.52
2017-06-02T16:30:26.494Z,9.00
2017-06-02T16:32:55.367Z,7.26
2017-06-02T16:35:24.211Z,8.06
2017-06-02T16:37:53.052Z,9.98
2017-06-02T16:40:21.939Z,9.02
2017-06-02T16:42:50.805Z,7.62
2017-06-02T16:45:19.651Z,6.08
2017-06-02T16:47:48.559Z,7.44
2017-06-02T16:50:17.402Z,7.14
2017-06-02T16:52:46.248Z,6.72
2017-06-02T16:55:15.088Z,5.70
2017-06-02T16:57:43.171Z,7.98
2017-06-02T17:00:11.247Z,11.18
2017-06-02T17:02:39.610Z,9.52
2017-06-02T17:05:08.460Z,7.08
2017-06-02T17:07:37.303Z,8.82
2017-06-02T17:10:06.152Z,6.88
2017-06-02T17:13:11.392Z,9.33
2017-06-02T17:15:39.459Z,8.03
2017-06-02T17:18:07.530Z,6.77
2017-06-02T17:20:35.608Z,8.27
2017-06-02T17:23:03.695Z,8.90
2017-06-02T17:25:31.784Z,9.73
2017-06-02T17:27:59.851Z,8.40
2017-06-02T17:30:27.926Z,6.50
2017-06-02T17:32:56.763Z,9.50
2017-06-02T17:35:24.835Z,6.30
2017-06-02T17:37:52.907Z,6.40
2017-06-02T17:40:20.988Z,7.60
2017-06-02T17:42:49.058Z,6.73
2017-06-02T17:45:17.124Z,8.40
2017-06-02T17:47:45.211Z,9.10
2017-06-02T17:50:13.295Z,10.93
2017-06-02T17:52:41.369Z,7.60
2017-06-02T17:55:09.430Z,8.53
2017-06-02T17:57:37.527Z,7.70
2017-06-02T18:00:05.602Z,7.10
2017-06-02T18:02:33.719Z,9.17
2017-06-02T18:05:01.862Z,7.57
2017-06-02T18:07:30.730Z,8.00
2017-06-02T18:09:58.844Z,7.67
2017-06-02T18:12:26.907Z,7.57
2017-06-02T18:14:55.004Z,9.20
2017-06-02T18:17:23.067Z,6.40
2017-06-02T18:19:51.215Z,6.57
2017-06-02T18:22:19.287Z,8.80
2017-06-02T18:24:47.358Z,7.07
2017-06-02T18:27:15.432Z,7.67
2017-06-02T18:29:43.495Z,8.43
2017-06-02T18:32:11.576Z,7.97
2017-06-02T18:34:40.420Z,6.57
2017-06-02T18:37:08.850Z,7.20
2017-06-02T18:39:36.919Z,7.30
2017-06-02T18:42:05.012Z,7.80
2017-06-02T18:44:33.080Z,6.80
2017-06-02T18:47:01.147Z,7.63
2017-06-02T18:49:29.279Z,7.23
2017-06-02T18:51:57.379Z,8.63
2017-06-02T18:54:25.451Z,6.47
2017-06-02T18:56:53.519Z,8.07
2017-06-02T18:59:21.591Z,6.93
2017-06-02T19:01:49.663Z,8.13
2017-06-02T19:04:17.773Z,143.40
2017-06-02T19:06:45.888Z,183.67
2017-06-02T19:09:13.972Z,115.50
2017-06-02T19:11:42.059Z,151.97
2017-06-02T19:14:10.126Z,45.10
2017-06-02T19:16:38.207Z,20.87
2017-06-02T19:19:07.051Z,50.57
2017-06-02T19:21:35.131Z,65.93
2017-06-02T19:24:03.446Z,113.50
2017-06-02T19:26:31.553Z,63.03
2017-06-02T19:28:59.627Z,151.23
2017-06-02T19:31:27.719Z,106.83
2017-06-02T19:33:55.820Z,98.47
2017-06-02T19:36:23.899Z,21.37
2017-06-02T19:38:51.976Z,15.73
2017-06-02T19:41:20.049Z,12.33
2017-06-02T19:43:48.128Z,14.57
2017-06-02T19:46:16.201Z,15.03
2017-06-02T19:48:44.281Z,16.97
2017-06-02T19:51:13.136Z,16.13
2017-06-02T19:53:41.215Z,12.67
2017-06-02T19:56:09.304Z,11.03
2017-06-02T19:58:37.367Z,11.57
2017-06-02T20:01:06.257Z,14.70
2017-06-02T20:03:34.326Z,15.40
2017-06-02T20:06:02.408Z,13.90
2017-06-02T20:08:30.487Z,13.43
2017-06-02T20:10:58.556Z,19.03
2017-06-02T20:13:26.651Z,10.17
2017-06-02T20:15:55.488Z,9.67
2017-06-02T20:18:23.569Z,11.90
2017-06-02T20:23:26.032Z,10.80
2017-06-02T20:25:54.117Z,13.20
2017-06-02T20:28:22.200Z,13.00
2017-06-02T20:30:50.287Z,11.90
2017-06-02T20:33:18.371Z,13.30
2017-06-02T20:35:46.470Z,12.77
2017-06-02T20:38:14.546Z,15.30
2017-06-02T20:40:42.624Z,11.80
2017-06-02T20:43:10.707Z,13.70
2017-06-02T20:45:38.776Z,14.97
2017-06-02T20:48:06.852Z,12.40
2017-06-02T20:50:34.936Z,13.30
2017-06-02T20:53:03.019Z,16.00
2017-06-02T20:55:31.084Z,13.57
2017-06-02T20:57:59.183Z,13.50
2017-06-02T21:00:27.252Z,15.10
2017-06-02T21:02:55.319Z,11.93
2017-06-02T21:05:23.396Z,14.03
2017-06-02T21:07:51.471Z,11.40
2017-06-02T21:10:19.543Z,9.53
2017-06-02T21:12:47.614Z,10.70
2017-06-02T21:15:15.688Z,9.40
2017-06-02T21:17:43.755Z,13.23
2017-06-02T21:20:11.847Z,9.30
2017-06-02T21:22:41.158Z,10.70
2017-06-02T21:25:19.318Z,10.70
2017-06-02T21:27:47.392Z,10.13
2017-06-02T21:30:15.459Z,9.27
2017-06-02T21:32:43.535Z,14.00
2017-06-02T21:35:11.644Z,10.53
2017-06-02T21:37:39.720Z,9.63
2017-06-02T21:40:07.819Z,10.27
2017-06-02T21:42:35.925Z,10.40
2017-06-02T21:45:04.000Z,14.67
2017-06-02T21:47:32.077Z,13.97
2017-06-02T21:50:00.164Z,9.90
2017-06-02T21:52:28.241Z,11.60
2017-06-02T21:54:56.330Z,11.43
2017-06-02T21:57:24.399Z,10.93
2017-06-02T21:59:52.472Z,13.40
2017-06-02T22:02:20.546Z,10.00
2017-06-02T22:04:48.636Z,12.70
2017-06-02T22:07:17.472Z,12.23
2017-06-02T22:09:45.534Z,12.03
2017-06-02T22:12:13.616Z,12.13
2017-06-02T22:14:41.684Z,12.73
2017-06-02T22:17:09.759Z,12.70
2017-06-02T22:19:37.830Z,9.97
2017-06-02T22:22:05.919Z,13.43
2017-06-02T22:24:34.102Z,12.40
2017-06-02T22:27:02.168Z,11.37
2017-06-02T22:29:30.240Z,13.40
2017-06-02T22:31:58.330Z,12.30
2017-06-02T22:34:26.403Z,11.37
2017-06-02T22:36:54.476Z,12.53
2017-06-02T22:39:22.584Z,10.90
2017-06-02T22:41:50.656Z,10.00
2017-06-02T22:44:18.724Z,10.10
2017-06-02T22:46:46.796Z,9.20
2017-06-02T22:49:15.784Z,11.07
2017-06-02T22:51:44.635Z,12.13
2017-06-02T22:54:12.707Z,9.70
2017-06-02T22:56:40.780Z,9.20
2017-06-02T22:59:08.876Z,10.50
2017-06-02T23:01:36.963Z,10.43
2017-06-02T23:04:05.803Z,13.50
2017-06-02T23:06:33.875Z,10.90
2017-06-02T23:09:01.960Z,12.07
2017-06-02T23:11:30.032Z,13.90
2017-06-02T23:13:58.113Z,13.30
2017-06-02T23:16:26.199Z,13.27
2017-06-02T23:18:54.388Z,13.80
2017-06-02T23:21:22.443Z,12.13
2017-06-02T23:23:50.547Z,12.10
2017-06-02T23:26:18.623Z,12.30
2017-06-02T23:28:46.696Z,13.70
2017-06-02T23:31:14.784Z,12.97
2017-06-02T23:33:42.862Z,12.60
2017-06-02T23:36:10.942Z,12.30
2017-06-02T23:38:39.125Z,16.17
2017-06-02T23:41:07.195Z,13.63
2017-06-02T23:43:35.272Z,14.50
2017-06-02T23:46:03.379Z,15.13
2017-06-02T23:48:31.456Z,13.60
2017-06-02T23:50:59.523Z,15.83
2017-06-02T23:53:27.607Z,13.23
2017-06-02T23:55:55.687Z,14.40
2017-06-02T23:58:24.531Z,13.17
